KFSI

Henry Post AAF (Fort Sill) Airport

Fort Sill, Oklahoma, USA
METAR KFSI 231056Z AUTO 16004KT 10SM CLR 20/20 A3001 RMK AO2 SLP154 T02030203
Observed Flight Rules
May-23 @ 10:56 UTC (21 minutes ago) Visual Flight Rules
Wind Visibility Clouds
160° at 4 knots 10 miles
  • Clear skies
Temperatures Readings
Current 20°C / 68°F
Dewpoint 20°C / 68°F
Humidity 100%
Altimeter 30.01" Hg
Pressure 1015.4 hPa
Elevation 362
METAR KFSI 231056Z AUTO 16004KT 10SM CLR 20/20 A3001 RMK AO2 SLP154 T02030203
Observed Flight Rules
May-23 @ 10:56 UTC
(21 minutes ago)
VFR
Wind Visibility
160° at 4 knots 10 miles
Clouds
  • Clear skies
Temperature Dewpoint
20°C / 68°F 20°C / 68°F
Humidity Altimeter Pressure
100% 30.01" Hg 1015.4 hPa